Time;durP1;ratioP1;P1;durP2;ratioP2;P2;SDS_P1;SDS_P2;PMS_P1;PMS_P2;Temp;Humidity;BMP_temperature;BMP_pressure;BME280_temperature;BME280_humidity;BME280_pressure;Samples;Min_cycle;Max_cycle;Signal;HPM_P1;HPM_P2
2021/10/07 00:00:12;;;;;;;;;;;;;;;21.22;47.94;96384.09;1052941;28;1122;-59
2021/10/07 00:00:42;;;;;;;;;;;;;;;21.22;47.81;96380.66;1052743;28;1165;-58
2021/10/07 00:01:12;;;;;;;;;;;;;;;21.22;47.96;96383.31;1050208;28;1924;-56
2021/10/07 00:01:43;;;;;;;;;;;;;;;21.22;47.99;96389.38;1047716;28;2190;-59
2021/10/07 00:02:13;;;;;;;;;;;;;;;21.21;47.88;96385.16;1052697;28;1055;-59
2021/10/07 00:02:43;;;;;;;;;;;;;;;21.21;48.34;96381.72;1048424;28;2018;-58
2021/10/07 00:03:14;;;;;;;;;;;;;;;21.20;48.11;96386.22;1052946;28;1137;-59
2021/10/07 00:03:44;;;;;;;;;;;;;;;21.21;48.14;96386.97;1053358;28;1068;-58
2021/10/07 00:04:15;;;;;;;;;;;;;;;21.21;47.94;96387.78;1050185;28;1051;-57
2021/10/07 00:04:45;;;;;;;;;;;;;;;21.21;48.07;96381.72;1048753;28;1824;-58
2021/10/07 00:05:16;;;;;;;;;;;;;;;21.20;48.18;96378.31;1049958;28;1832;-58
2021/10/07 00:05:46;;;;;;;;;;;;;;;21.20;48.36;96385.41;1050105;28;1983;-57
2021/10/07 00:06:16;;;;;;;;;;;;;;;21.20;48.11;96380.94;1052535;28;1903;-59
2021/10/07 00:06:47;;;;;;;;;;;;;;;21.21;48.19;96385.16;1052675;28;1563;-56
2021/10/07 00:07:17;;;;;;;;;;;;;;;21.20;47.99;96380.13;1051919;28;1094;-57
2021/10/07 00:07:47;;;;;;;;;;;;;;;21.19;48.21;96381.97;1049972;28;2220;-57
2021/10/07 00:08:18;;;;;;;;;;;;;;;21.19;48.14;96386.44;1052863;28;1192;-60
2021/10/07 00:08:49;;;;;;;;;;;;;;;21.18;47.92;96377.78;1051869;28;1637;-58
2021/10/07 00:09:19;;;;;;;;;;;;;;;21.18;47.98;96380.41;1050633;28;1023;-60
2021/10/07 00:09:50;;;;;;;;;;;;;;;21.18;48.16;96376.97;1050544;28;1080;-59
2021/10/07 00:10:20;;;;;;;;;;;;;;;21.18;48.19;96383.03;1053274;28;1067;-59
2021/10/07 00:10:51;;;;;;;;;;;;;;;21.20;48.18;96382.78;1049967;28;1397;-58
2021/10/07 00:11:21;;;;;;;;;;;;;;;21.19;48.32;96383.81;1051277;28;1282;-59
2021/10/07 00:11:51;;;;;;;;;;;;;;;21.20;47.95;96380.94;1052529;28;1079;-59
2021/10/07 00:12:22;;;;;;;;;;;;;;;21.20;48.19;96382.78;1051917;28;1098;-59
2021/10/07 00:12:52;;;;;;;;;;;;;;;21.20;48.33;96380.13;1048716;28;2119;-58
2021/10/07 00:13:22;;;;;;;;;;;;;;;21.19;48.15;96386.44;1053130;28;1110;-58
2021/10/07 00:13:53;;;;;;;;;;;;;;;21.18;48.09;96376.97;1050976;28;2149;-57
2021/10/07 00:14:23;;;;;;;;;;;;;;;21.18;47.91;96388.31;1051675;28;1000;-59
2021/10/07 00:14:53;;;;;;;;;;;;;;;21.18;48.02;96376.97;1052138;28;2232;-59
2021/10/07 00:15:24;;;;;;;;;;;;;;;21.18;48.18;96377.78;1051144;28;1844;-57
2021/10/07 00:15:55;;;;;;;;;;;;;;;21.18;48.26;96382.25;1053221;28;1103;-58
2021/10/07 00:16:25;;;;;;;;;;;;;;;21.19;48.22;96381.19;1050117;28;1919;-59
2021/10/07 00:16:55;;;;;;;;;;;;;;;21.17;47.97;96386.72;1052463;28;1056;-59
2021/10/07 00:17:25;;;;;;;;;;;;;;;21.18;47.95;96382.25;1050579;28;1867;-58
2021/10/07 00:17:57;;;;;;;;;;;;;;;21.18;48.17;96376.97;1048435;28;1922;-57
2021/10/07 00:18:28;;;;;;;;;;;;;;;21.18;48.09;96380.41;1051894;28;1958;-60
2021/10/07 00:18:58;;;;;;;;;;;;;;;21.17;48.15;96376.19;1050443;28;2213;-59
2021/10/07 00:19:28;;;;;;;;;;;;;;;21.18;48.14;96382.25;1052672;28;1143;-59
2021/10/07 00:19:59;;;;;;;;;;;;;;;21.17;47.96;96385.91;1053180;28;1055;-59
2021/10/07 00:20:29;;;;;;;;;;;;;;;21.17;48.12;96375.38;1052787;28;1125;-56
2021/10/07 00:20:59;;;;;;;;;;;;;;;21.17;47.79;96385.91;1050713;28;1887;-58
2021/10/07 00:21:29;;;;;;;;;;;;;;;21.17;48.07;96378.00;1049646;28;1946;-59
2021/10/07 00:22:00;;;;;;;;;;;;;;;21.16;47.98;96379.88;1048144;28;1927;-58
2021/10/07 00:22:31;;;;;;;;;;;;;;;21.16;48.06;96387.00;1047978;28;2088;-59
2021/10/07 00:23:01;;;;;;;;;;;;;;;21.16;48.21;96379.09;1051498;28;1001;-59
2021/10/07 00:23:52;;;;;;;;;;;;;;;21.16;48.25;96377.25;1051550;28;1080;-59
2021/10/07 00:24:22;;;;;;;;;;;;;;;21.16;48.02;96377.25;1048767;28;1901;-59
2021/10/07 00:24:52;;;;;;;;;;;;;;;21.17;48.12;96378.00;1050805;28;2244;-58
2021/10/07 00:25:22;;;;;;;;;;;;;;;21.16;47.86;96379.88;1050316;28;1365;-58
2021/10/07 00:25:53;;;;;;;;;;;;;;;21.16;47.92;96377.25;1051065;28;2873;-58
2021/10/07 00:26:23;;;;;;;;;;;;;;;21.16;47.94;96376.44;1049964;28;1837;-60
2021/10/07 00:26:54;;;;;;;;;;;;;;;21.16;48.13;96374.59;1050945;28;1824;-60
2021/10/07 00:27:24;;;;;;;;;;;;;;;21.16;47.93;96379.88;1053133;28;1177;-60
2021/10/07 00:28:02;;;;;;;;;;;;;;;21.16;48.01;96373.81;1050524;28;2145;-59
2021/10/07 00:28:33;;;;;;;;;;;;;;;21.16;47.80;96373.81;1052611;28;1852;-60
2021/10/07 00:29:47;;;;;;;;;;;;;;;21.16;47.91;96379.09;1051877;28;1578;-59
2021/10/07 00:30:20;;;;;;;;;;;;;;;21.15;48.00;96374.84;1051717;28;1942;-59
2021/10/07 00:30:55;;;;;;;;;;;;;;;21.16;47.91;96379.09;1050853;28;2282;-59
2021/10/07 00:31:29;;;;;;;;;;;;;;;21.15;48.00;96380.13;1050036;28;1875;-59
2021/10/07 00:32:06;;;;;;;;;;;;;;;21.15;47.89;96382.75;1052544;28;989;-60
2021/10/07 00:32:45;;;;;;;;;;;;;;;21.16;48.07;96381.72;1047950;28;2259;-57
2021/10/07 00:33:23;;;;;;;;;;;;;;;21.14;48.04;96376.72;1050990;28;1083;-56
2021/10/07 00:35:10;;;;;;;;;;;;;;;21.16;47.99;96384.34;1043157;28;1879;-60
2021/10/07 00:39:03;;;;;;;;;;;;;;;21.15;48.06;96388.03;1049739;28;1957;-58
2021/10/07 00:39:33;;;;;;;;;;;;;;;21.15;47.94;96388.03;1051979;28;2101;-59
2021/10/07 00:40:07;;;;;;;;;;;;;;;21.14;47.87;96387.25;1050570;28;2074;-58
2021/10/07 00:40:37;;;;;;;;;;;;;;;21.13;47.83;96385.66;1050722;28;2184;-62
2021/10/07 00:41:08;;;;;;;;;;;;;;;21.14;47.99;96386.47;1050576;28;1088;-58
2021/10/07 00:41:39;;;;;;;;;;;;;;;21.13;48.10;96385.66;1050612;28;2232;-58
2021/10/07 00:42:10;;;;;;;;;;;;;;;21.14;48.04;96389.09;1050084;28;1894;-58
2021/10/07 00:42:40;;;;;;;;;;;;;;;21.14;48.07;96391.72;1053032;28;1911;-57
2021/10/07 00:43:10;;;;;;;;;;;;;;;21.13;48.00;96390.94;1051864;28;2153;-59
2021/10/07 00:43:41;;;;;;;;;;;;;;;21.14;48.04;96389.09;1053149;28;1125;-58
2021/10/07 00:44:11;;;;;;;;;;;;;;;21.14;47.95;96394.38;1052870;28;1121;-58
2021/10/07 00:44:44;;;;;;;;;;;;;;;21.14;47.99;96387.25;1048139;28;2141;-58
2021/10/07 00:45:15;;;;;;;;;;;;;;;21.13;48.09;96385.66;1050711;28;1899;-55
2021/10/07 00:45:51;;;;;;;;;;;;;;;21.13;48.08;96387.50;1049264;28;2178;-59
2021/10/07 00:46:21;;;;;;;;;;;;;;;21.13;47.79;96390.13;1052029;28;1203;-58
2021/10/07 00:46:53;;;;;;;;;;;;;;;21.13;47.81;96387.50;1050457;28;1064;-58
2021/10/07 00:47:23;;;;;;;;;;;;;;;21.13;47.82;96390.94;1051590;28;1196;-59
2021/10/07 00:47:54;;;;;;;;;;;;;;;21.13;48.03;96387.50;1048057;28;2086;-58
2021/10/07 00:48:25;;;;;;;;;;;;;;;21.13;47.96;96393.56;1053115;28;1370;-59
2021/10/07 00:48:55;;;;;;;;;;;;;;;21.12;47.93;96384.09;1052859;28;1102;-60
2021/10/07 00:49:26;;;;;;;;;;;;;;;21.13;47.87;96387.50;1051541;28;1118;-60
2021/10/07 00:49:56;;;;;;;;;;;;;;;21.12;48.09;96386.72;1052935;28;1046;-59
2021/10/07 00:50:27;;;;;;;;;;;;;;;21.12;47.96;96380.66;1053055;28;999;-59
2021/10/07 00:50:57;;;;;;;;;;;;;;;21.12;47.93;96383.28;1052145;28;1090;-60
2021/10/07 00:51:28;;;;;;;;;;;;;;;21.12;47.94;96380.66;1049516;28;1150;-60
2021/10/07 00:51:58;;;;;;;;;;;;;;;21.12;47.93;96381.47;1050969;28;1228;-60
2021/10/07 00:52:28;;;;;;;;;;;;;;;21.12;48.09;96380.66;1049436;28;1098;-60
2021/10/07 00:52:59;;;;;;;;;;;;;;;21.12;47.88;96383.28;1050185;28;1922;-58
2021/10/07 00:53:29;;;;;;;;;;;;;;;21.12;47.81;96378.03;1051539;28;1486;-58
2021/10/07 00:53:59;;;;;;;;;;;;;;;21.12;48.15;96383.28;1051270;28;2342;-57
2021/10/07 00:54:30;;;;;;;;;;;;;;;21.11;47.87;96382.50;1050849;28;1880;-60
2021/10/07 00:55:00;;;;;;;;;;;;;;;21.11;48.05;96379.06;1046419;28;1900;-60
2021/10/07 00:55:30;;;;;;;;;;;;;;;21.12;48.05;96383.28;1040248;28;2184;-60
2021/10/07 00:56:01;;;;;;;;;;;;;;;21.11;47.96;96382.50;1048239;28;1052;-59
2021/10/07 00:56:32;;;;;;;;;;;;;;;21.11;47.87;96377.22;1048681;28;867;-58
2021/10/07 00:57:03;;;;;;;;;;;;;;;21.10;47.74;96375.66;1045755;28;1382;-59
2021/10/07 00:57:34;;;;;;;;;;;;;;;21.12;48.15;96380.66;1052759;28;1029;-60
2021/10/07 00:58:04;;;;;;;;;;;;;;;21.11;47.83;96382.50;1039968;28;2063;-59
2021/10/07 00:58:35;;;;;;;;;;;;;;;21.10;47.84;96375.66;1041899;28;2060;-57
2021/10/07 00:59:05;;;;;;;;;;;;;;;21.11;47.97;96381.69;1047407;28;2037;-60
2021/10/07 00:59:36;;;;;;;;;;;;;;;21.10;48.05;96377.50;1048626;28;1166;-60
2021/10/07 01:00:06;;;;;;;;;;;;;;;21.11;47.78;96381.69;1052469;28;1115;-58
2021/10/07 01:00:37;;;;;;;;;;;;;;;21.10;47.95;96380.94;1052746;28;1063;-59
2021/10/07 01:01:07;;;;;;;;;;;;;;;21.10;48.12;96377.50;1050709;28;1072;-59
2021/10/07 01:01:37;;;;;;;;;;;;;;;21.10;47.85;96374.84;1051128;28;2221;-59
2021/10/07 01:02:07;;;;;;;;;;;;;;;21.09;47.96;96371.41;1050751;28;1088;-60
2021/10/07 01:02:38;;;;;;;;;;;;;;;21.10;48.19;96377.50;1048998;28;2273;-59
2021/10/07 01:03:08;;;;;;;;;;;;;;;21.10;47.87;96373.03;1051179;28;2201;-58
2021/10/07 01:03:38;;;;;;;;;;;;;;;21.10;47.92;96374.84;1051394;28;1764;-59
2021/10/07 01:04:09;;;;;;;;;;;;;;;21.09;47.74;96374.06;1052334;28;937;-59
2021/10/07 01:04:39;;;;;;;;;;;;;;;21.09;47.84;96374.06;1047542;28;2388;-58
2021/10/07 01:05:10;;;;;;;;;;;;;;;21.10;47.78;96369.59;1050272;28;1948;-60
2021/10/07 01:05:40;;;;;;;;;;;;;;;21.09;47.85;96368.78;1049459;28;1980;-59
2021/10/07 01:06:10;;;;;;;;;;;;;;;21.08;47.97;96371.69;1046879;28;1499;-60
2021/10/07 01:06:42;;;;;;;;;;;;;;;21.10;47.99;96380.13;1048231;28;1100;-56
2021/10/07 01:07:12;;;;;;;;;;;;;;;21.09;47.77;96379.34;1040875;28;1494;-58
2021/10/07 01:07:43;;;;;;;;;;;;;;;21.09;47.99;96374.06;1043691;28;1159;-59
2021/10/07 01:08:14;;;;;;;;;;;;;;;21.09;47.78;96379.34;1048307;28;1363;-59
2021/10/07 01:08:44;;;;;;;;;;;;;;;21.08;47.92;96370.63;1043925;28;2534;-59
2021/10/07 01:09:22;;;;;;;;;;;;;;;21.08;47.96;96374.31;1047800;28;1347;-60
2021/10/07 01:09:53;;;;;;;;;;;;;;;21.08;47.79;96373.25;1044014;28;1542;-60
2021/10/07 01:10:24;;;;;;;;;;;;;;;21.08;47.96;96372.50;1039331;28;1935;-60
2021/10/07 01:10:54;;;;;;;;;;;;;;;21.07;48.14;96370.88;1043590;28;1345;-60
2021/10/07 01:11:44;;;;;;;;;;;;;;;21.08;48.00;96375.91;1044637;28;1336;-57
2021/10/07 01:12:27;;;;;;;;;;;;;;;21.08;47.86;96374.31;1045374;28;1981;-60
2021/10/07 01:13:15;;;;;;;;;;;;;;;21.08;47.65;96376.97;1042160;28;1212;-60
2021/10/07 01:13:45;;;;;;;;;;;;;;;21.08;48.00;96374.31;1046792;28;2448;-58
2021/10/07 01:14:35;;;;;;;;;;;;;;;21.08;48.04;96376.97;1048414;28;2287;-59
2021/10/07 01:15:05;;;;;;;;;;;;;;;21.08;47.83;96374.31;1050085;28;2016;-57
2021/10/07 01:15:36;;;;;;;;;;;;;;;21.08;47.81;96373.25;1051167;28;1052;-56
2021/10/07 01:16:06;;;;;;;;;;;;;;;21.08;47.92;96378.53;1051741;28;2007;-59
2021/10/07 01:16:37;;;;;;;;;;;;;;;21.06;47.98;96378.00;1048707;28;1744;-60
2021/10/07 01:17:20;;;;;;;;;;;;;;;21.06;47.80;96371.97;1051308;28;2121;-59
2021/10/07 01:17:58;;;;;;;;;;;;;;;21.06;47.78;96380.63;1045046;28;2001;-59
2021/10/07 01:18:41;;;;;;;;;;;;;;;21.06;48.05;96383.28;1043711;28;2123;-59
2021/10/07 01:19:27;;;;;;;;;;;;;;;21.06;48.02;96378.00;1042256;28;2012;-59
2021/10/07 01:20:13;;;;;;;;;;;;;;;21.06;47.91;96380.63;1038698;28;2332;-57
2021/10/07 01:20:43;;;;;;;;;;;;;;;21.06;47.55;96380.63;1043494;28;2165;-58
2021/10/07 01:21:14;;;;;;;;;;;;;;;21.06;47.95;96374.59;1041677;28;2085;-58
2021/10/07 01:21:45;;;;;;;;;;;;;;;21.06;47.92;96378.00;1046653;28;1568;-59
2021/10/07 01:22:15;;;;;;;;;;;;;;;21.06;47.71;96379.88;1052218;28;1063;-61
2021/10/07 01:22:46;;;;;;;;;;;;;;;21.05;47.98;96384.34;1049732;28;2090;-58
2021/10/07 01:23:18;;;;;;;;;;;;;;;21.05;47.79;96383.53;1050898;28;1983;-59
2021/10/07 01:24:08;;;;;;;;;;;;;;;21.05;47.98;96384.34;1048899;28;1990;-60
2021/10/07 01:25:00;;;;;;;;;;;;;;;21.05;47.73;96384.34;1048371;28;2115;-58
2021/10/07 01:25:50;;;;;;;;;;;;;;;21.05;47.93;96379.06;1049117;28;1969;-57
2021/10/07 01:26:21;;;;;;;;;;;;;;;21.06;47.92;96385.13;1045727;28;2428;-59
2021/10/07 01:26:51;;;;;;;;;;;;;;;21.06;47.91;96385.91;1042530;28;2028;-59
2021/10/07 01:27:23;;;;;;;;;;;;;;;21.05;47.92;96386.97;1044936;28;2031;-60
2021/10/07 01:27:54;;;;;;;;;;;;;;;21.05;47.88;96384.34;1046015;28;986;-59
2021/10/07 01:28:25;;;;;;;;;;;;;;;21.04;47.93;96381.97;1047232;28;2008;-59
2021/10/07 01:28:55;;;;;;;;;;;;;;;21.05;47.92;96383.53;1051865;28;952;-60
2021/10/07 01:29:25;;;;;;;;;;;;;;;21.05;47.64;96386.19;1043944;28;2277;-60
2021/10/07 01:30:00;;;;;;;;;;;;;;;21.04;47.64;96385.38;1046602;28;1093;-60
2021/10/07 01:30:30;;;;;;;;;;;;;;;21.04;47.59;96381.97;1051604;28;1602;-59
2021/10/07 01:31:01;;;;;;;;;;;;;;;21.04;48.02;96385.38;1052712;28;1114;-59
2021/10/07 01:31:31;;;;;;;;;;;;;;;21.05;47.80;96383.53;1052819;28;1013;-59
2021/10/07 01:32:02;;;;;;;;;;;;;;;21.05;47.78;96384.34;1051335;28;2034;-59
2021/10/07 01:32:33;;;;;;;;;;;;;;;21.05;47.95;96386.97;1049729;28;2360;-60
2021/10/07 01:33:03;;;;;;;;;;;;;;;21.04;47.80;96382.75;1050281;28;2069;-60
2021/10/07 01:33:34;;;;;;;;;;;;;;;21.04;47.87;96380.09;1050844;28;2078;-59
2021/10/07 01:34:04;;;;;;;;;;;;;;;21.03;47.78;96378.53;1052749;28;1060;-60
2021/10/07 01:34:35;;;;;;;;;;;;;;;21.03;47.68;96381.19;1049861;28;2315;-60
2021/10/07 01:35:06;;;;;;;;;;;;;;;21.04;47.50;96382.75;1051289;28;1202;-59
2021/10/07 01:35:36;;;;;;;;;;;;;;;21.04;47.64;96380.09;1048311;28;1022;-59
2021/10/07 01:36:07;;;;;;;;;;;;;;;21.04;47.55;96382.75;1052099;28;1136;-60
2021/10/07 01:36:37;;;;;;;;;;;;;;;21.04;47.73;96381.97;1046369;28;2310;-60
2021/10/07 01:37:07;;;;;;;;;;;;;;;21.03;47.85;96378.53;1050367;28;2499;-59
2021/10/07 01:37:38;;;;;;;;;;;;;;;21.04;47.94;96381.97;1051782;28;1790;-59
2021/10/07 01:38:08;;;;;;;;;;;;;;;21.04;47.65;96372.19;1051225;28;1323;-59
2021/10/07 01:38:38;;;;;;;;;;;;;;;21.04;48.07;96380.09;1050719;28;2080;-60
2021/10/07 01:39:09;;;;;;;;;;;;;;;21.03;47.66;96375.91;1051255;28;2023;-59
2021/10/07 01:39:39;;;;;;;;;;;;;;;21.04;47.55;96374.84;1053008;28;800;-59
2021/10/07 01:40:11;;;;;;;;;;;;;;;21.03;47.87;96373.25;1050457;28;1992;-60
2021/10/07 01:40:41;;;;;;;;;;;;;;;21.04;48.03;96381.97;1049525;28;2413;-59
2021/10/07 01:41:12;;;;;;;;;;;;;;;21.03;47.64;96378.53;1050819;28;2351;-60
2021/10/07 01:41:42;;;;;;;;;;;;;;;21.03;47.83;96377.75;1050039;28;1079;-57
2021/10/07 01:42:12;;;;;;;;;;;;;;;21.02;47.88;96376.94;1052583;28;2355;-60
2021/10/07 01:42:43;;;;;;;;;;;;;;;21.02;47.78;96374.31;1056536;28;1025;-59
2021/10/07 01:43:13;;;;;;;;;;;;;;;21.02;47.82;96378.78;1052820;28;1142;-58
2021/10/07 01:43:44;;;;;;;;;;;;;;;21.02;47.93;96376.13;1048980;28;2075;-59
2021/10/07 01:44:16;;;;;;;;;;;;;;;21.02;47.86;96378.78;1052498;28;1126;-59
2021/10/07 01:44:48;;;;;;;;;;;;;;;21.02;47.83;96382.22;1050808;28;2396;-59
2021/10/07 01:45:19;;;;;;;;;;;;;;;21.03;47.75;96380.38;1048827;28;2058;-58
2021/10/07 01:45:49;;;;;;;;;;;;;;;21.01;47.87;96377.97;1043843;28;2203;-59
2021/10/07 01:46:19;;;;;;;;;;;;;;;21.02;47.87;96376.13;1046712;28;1039;-57
2021/10/07 01:46:50;;;;;;;;;;;;;;;21.01;47.71;96377.97;1048282;28;1211;-58
2021/10/07 01:47:20;;;;;;;;;;;;;;;21.01;47.60;96380.63;1050978;28;2398;-58
2021/10/07 01:47:50;;;;;;;;;;;;;;;21.01;47.65;96375.34;1051335;28;1068;-56
2021/10/07 01:48:21;;;;;;;;;;;;;;;21.01;47.59;96377.97;1049192;28;2427;-58
2021/10/07 01:48:51;;;;;;;;;;;;;;;21.01;47.82;96377.19;1046995;28;2393;-57
2021/10/07 01:49:21;;;;;;;;;;;;;;;21.02;47.73;96374.31;1045951;28;2428;-58
2021/10/07 01:49:52;;;;;;;;;;;;;;;21.02;47.77;96378.78;1046408;28;1021;-58
2021/10/07 01:50:22;;;;;;;;;;;;;;;21.02;47.80;96379.56;1048392;28;1134;-59
2021/10/07 01:50:52;;;;;;;;;;;;;;;21.02;47.69;96373.50;1050591;28;2363;-57
2021/10/07 01:51:23;;;;;;;;;;;;;;;21.02;48.02;96373.50;1051068;28;1988;-58
2021/10/07 01:51:53;;;;;;;;;;;;;;;21.00;47.80;96371.09;1048994;28;2460;-58
2021/10/07 01:52:24;;;;;;;;;;;;;;;21.01;47.64;96375.34;1052109;28;1772;-59
2021/10/07 01:52:54;;;;;;;;;;;;;;;21.01;47.69;96371.91;1046856;28;1745;-59
2021/10/07 01:53:24;;;;;;;;;;;;;;;21.01;47.68;96377.97;1045652;28;1519;-59
2021/10/07 01:53:54;;;;;;;;;;;;;;;21.00;47.59;96373.75;1050353;28;2255;-60
2021/10/07 01:54:25;;;;;;;;;;;;;;;21.00;47.96;96373.75;1046708;28;1833;-59
2021/10/07 01:54:55;;;;;;;;;;;;;;;21.00;47.89;96375.59;1051008;28;1886;-60
2021/10/07 01:55:25;;;;;;;;;;;;;;;21.00;47.69;96371.09;1049129;28;1875;-58
2021/10/07 01:55:56;;;;;;;;;;;;;;;21.00;47.51;96371.09;1051457;28;1875;-59
2021/10/07 01:56:26;;;;;;;;;;;;;;;21.00;47.77;96363.19;1052434;28;1169;-57
2021/10/07 01:56:56;;;;;;;;;;;;;;;21.01;47.87;96372.72;1053051;28;1041;-58
2021/10/07 01:57:27;;;;;;;;;;;;;;;21.00;47.77;96372.94;1052011;28;1946;-60
2021/10/07 01:57:57;;;;;;;;;;;;;;;21.00;47.75;96371.09;1050253;28;1608;-59
2021/10/07 01:58:27;;;;;;;;;;;;;;;21.00;47.61;96372.94;1052368;28;1303;-59
2021/10/07 01:58:58;;;;;;;;;;;;;;;20.99;47.84;96364.28;1048004;28;2161;-59
2021/10/07 01:59:28;;;;;;;;;;;;;;;21.00;47.65;96362.41;1052966;28;1159;-59
2021/10/07 01:59:58;;;;;;;;;;;;;;;20.99;47.81;96374.81;1054051;28;1059;-59
2021/10/07 02:00:29;;;;;;;;;;;;;;;20.98;47.68;96367.94;1051877;28;1741;-56
2021/10/07 02:01:00;;;;;;;;;;;;;;;20.98;47.78;96367.94;1052111;28;1780;-58
2021/10/07 02:01:30;;;;;;;;;;;;;;;20.98;47.75;96378.50;1051878;28;1871;-56
2021/10/07 02:02:00;;;;;;;;;;;;;;;20.98;47.61;96375.84;1049687;28;1906;-57
2021/10/07 02:02:31;;;;;;;;;;;;;;;20.99;47.60;96374.00;1052136;28;1220;-57
2021/10/07 02:03:01;;;;;;;;;;;;;;;20.98;47.45;96373.22;1048742;28;1106;-58
2021/10/07 02:03:32;;;;;;;;;;;;;;;20.99;47.77;96368.75;1046870;28;1897;-58
2021/10/07 02:04:03;;;;;;;;;;;;;;;20.99;47.83;96374.81;1046984;28;1586;-59
2021/10/07 02:04:33;;;;;;;;;;;;;;;20.99;47.84;96374.00;1042782;28;1851;-60
2021/10/07 02:05:03;;;;;;;;;;;;;;;20.99;47.76;96374.81;1043088;28;1954;-59
2021/10/07 02:05:34;;;;;;;;;;;;;;;20.99;47.62;96372.19;1047664;28;2186;-59
2021/10/07 02:06:04;;;;;;;;;;;;;;;20.98;47.52;96375.84;1048153;28;1228;-58
2021/10/07 02:06:37;;;;;;;;;;;;;;;20.97;47.55;96374.28;1047481;28;2118;-59
2021/10/07 02:07:08;;;;;;;;;;;;;;;20.98;47.83;96380.31;1048079;28;1045;-59
2021/10/07 02:07:38;;;;;;;;;;;;;;;20.98;47.73;96375.84;1047373;28;1725;-59
2021/10/07 02:08:08;;;;;;;;;;;;;;;20.98;47.86;96377.69;1047106;28;2327;-59
2021/10/07 02:08:39;;;;;;;;;;;;;;;20.98;47.60;96373.22;1051722;28;2027;-59
2021/10/07 02:09:09;;;;;;;;;;;;;;;20.97;47.71;96376.13;1052442;28;1012;-58
2021/10/07 02:09:39;;;;;;;;;;;;;;;20.98;47.54;96373.22;1048632;28;2188;-59
2021/10/07 02:10:14;;;;;;;;;;;;;;;20.97;47.62;96371.66;1051593;28;1954;-59
2021/10/07 02:10:44;;;;;;;;;;;;;;;20.97;47.81;96376.91;1048469;28;1856;-59
2021/10/07 02:11:15;;;;;;;;;;;;;;;20.97;47.62;96376.91;1049588;28;1904;-59
2021/10/07 02:11:45;;;;;;;;;;;;;;;20.97;47.93;96374.28;1049404;28;1634;-58
2021/10/07 02:12:15;;;;;;;;;;;;;;;20.97;47.61;96371.66;1047813;28;1297;-59
2021/10/07 02:12:47;;;;;;;;;;;;;;;20.97;47.83;96381.38;1048863;28;1044;-59
2021/10/07 02:13:17;;;;;;;;;;;;;;;20.97;47.83;96376.13;1049125;28;1902;-58
2021/10/07 02:13:47;;;;;;;;;;;;;;;20.96;47.78;96380.59;1050257;28;1856;-58
2021/10/07 02:14:18;;;;;;;;;;;;;;;20.97;47.83;96376.91;1048834;28;1093;-58
2021/10/07 02:14:48;;;;;;;;;;;;;;;20.97;47.67;96381.38;1049364;28;1827;-58
2021/10/07 02:15:18;;;;;;;;;;;;;;;20.96;47.84;96380.59;1051346;28;1902;-59
2021/10/07 02:15:48;;;;;;;;;;;;;;;20.97;47.45;96379.56;1050600;28;2241;-58
2021/10/07 02:16:19;;;;;;;;;;;;;;;20.96;47.70;96377.16;1051047;28;2300;-57
2021/10/07 02:16:49;;;;;;;;;;;;;;;20.96;47.78;96377.97;1047789;28;2181;-58
2021/10/07 02:17:20;;;;;;;;;;;;;;;20.97;47.91;96382.19;1048900;28;2196;-58
2021/10/07 02:17:50;;;;;;;;;;;;;;;20.97;47.91;96376.13;1051081;28;1111;-59
2021/10/07 02:18:20;;;;;;;;;;;;;;;20.97;47.78;96376.13;1051137;28;1867;-59
2021/10/07 02:18:50;;;;;;;;;;;;;;;20.97;47.91;96376.91;1052596;28;1063;-57
2021/10/07 02:19:21;;;;;;;;;;;;;;;20.97;47.86;96382.19;1052003;28;1042;-58
2021/10/07 02:19:51;;;;;;;;;;;;;;;20.96;47.48;96380.59;1052414;28;1051;-58
2021/10/07 02:20:21;;;;;;;;;;;;;;;20.97;47.57;96382.19;1051144;28;1172;-59
2021/10/07 02:20:52;;;;;;;;;;;;;;;20.96;47.72;96383.22;1050291;28;981;-59
2021/10/07 02:21:23;;;;;;;;;;;;;;;20.98;47.56;96382.97;1049861;28;2055;-56
2021/10/07 02:21:53;;;;;;;;;;;;;;;20.97;47.75;96376.91;1048806;28;2051;-54
2021/10/07 02:22:23;;;;;;;;;;;;;;;20.97;47.60;96382.19;1050527;28;1087;-59
2021/10/07 02:22:54;;;;;;;;;;;;;;;20.96;47.64;96383.22;1050082;28;1079;-59
2021/10/07 02:23:24;;;;;;;;;;;;;;;20.97;47.76;96382.19;1052189;28;1114;-58
2021/10/07 02:23:54;;;;;;;;;;;;;;;20.96;47.62;96385.06;1050836;28;1118;-59
2021/10/07 02:24:25;;;;;;;;;;;;;;;20.95;47.57;96386.94;1050828;28;1851;-58
2021/10/07 02:24:56;;;;;;;;;;;;;;;20.96;47.57;96385.06;1050012;28;1847;-59
2021/10/07 02:25:26;;;;;;;;;;;;;;;20.96;47.62;96385.88;1050631;28;1840;-57
2021/10/07 02:25:57;;;;;;;;;;;;;;;20.96;47.55;96385.88;1050827;28;2030;-57
2021/10/07 02:26:28;;;;;;;;;;;;;;;20.95;47.62;96384.28;1045261;28;1907;-57
2021/10/07 02:26:58;;;;;;;;;;;;;;;20.95;47.78;96384.28;1047292;28;1016;-58
2021/10/07 02:27:28;;;;;;;;;;;;;;;20.95;47.80;96383.50;1045367;28;1818;-57
2021/10/07 02:27:59;;;;;;;;;;;;;;;20.94;47.50;96385.34;1043280;28;1473;-58
2021/10/07 02:28:29;;;;;;;;;;;;;;;20.95;47.67;96379.03;1052385;28;1007;-57
2021/10/07 02:28:59;;;;;;;;;;;;;;;20.94;47.43;96387.97;1051334;28;1875;-59
2021/10/07 02:29:30;;;;;;;;;;;;;;;20.94;47.71;96381.91;1051555;28;1717;-57
2021/10/07 02:30:00;;;;;;;;;;;;;;;20.95;47.63;96388.75;1049236;28;1582;-58
2021/10/07 02:30:30;;;;;;;;;;;;;;;20.93;47.66;96383.75;1053057;28;1841;-58
2021/10/07 02:31:01;;;;;;;;;;;;;;;20.95;47.66;96388.75;1052343;28;1648;-57
2021/10/07 02:31:31;;;;;;;;;;;;;;;20.94;47.58;96385.34;1051091;28;2144;-58
2021/10/07 02:32:01;;;;;;;;;;;;;;;20.94;47.84;96380.06;1048655;28;2178;-59
2021/10/07 02:32:32;;;;;;;;;;;;;;;20.95;47.62;96388.75;1052912;28;842;-58
2021/10/07 02:33:02;;;;;;;;;;;;;;;20.94;47.50;96381.91;1051913;28;1482;-57
2021/10/07 02:33:33;;;;;;;;;;;;;;;20.93;47.62;96386.41;1050181;28;2322;-59
2021/10/07 02:34:03;;;;;;;;;;;;;;;20.92;47.54;96384.81;1053306;28;1134;-59
2021/10/07 02:34:34;;;;;;;;;;;;;;;20.92;47.68;96390.06;1051126;28;2161;-59
2021/10/07 02:35:04;;;;;;;;;;;;;;;20.93;47.37;96389.03;1051834;28;1452;-57
2021/10/07 02:35:34;;;;;;;;;;;;;;;20.92;47.42;96384.81;1050012;28;1452;-59
2021/10/07 02:36:05;;;;;;;;;;;;;;;20.92;47.50;96384.81;1046903;28;1869;-59
2021/10/07 02:36:35;;;;;;;;;;;;;;;20.92;47.48;96395.34;1046667;28;2130;-58
2021/10/07 02:37:05;;;;;;;;;;;;;;;20.92;47.46;96395.34;1046821;28;1889;-57
2021/10/07 02:37:36;;;;;;;;;;;;;;;20.93;47.71;96390.88;1051952;28;2165;-58
2021/10/07 02:38:06;;;;;;;;;;;;;;;20.92;47.64;96395.34;1052184;28;1856;-58
2021/10/07 02:38:36;;;;;;;;;;;;;;;20.92;47.34;96395.34;1052368;28;1946;-59
2021/10/07 02:39:07;;;;;;;;;;;;;;;20.93;47.47;96396.94;1052321;28;1934;-57
2021/10/07 02:39:37;;;;;;;;;;;;;;;20.93;47.62;96396.16;1050019;28;2130;-59
2021/10/07 02:40:08;;;;;;;;;;;;;;;20.94;47.58;96397.72;1051678;28;1962;-58
2021/10/07 02:40:38;;;;;;;;;;;;;;;20.92;47.44;96397.97;1052557;28;2197;-59
2021/10/07 02:41:08;;;;;;;;;;;;;;;20.91;47.52;96393.78;1052431;28;1867;-58
2021/10/07 02:41:39;;;;;;;;;;;;;;;20.93;47.66;96398.78;1050668;28;2082;-58
2021/10/07 02:42:09;;;;;;;;;;;;;;;20.93;47.53;96396.16;1052824;28;1895;-58
2021/10/07 02:42:39;;;;;;;;;;;;;;;20.92;47.59;96394.53;1056060;28;2172;-57
2021/10/07 02:43:10;;;;;;;;;;;;;;;20.92;47.51;96394.53;1049902;28;1975;-59
2021/10/07 02:43:40;;;;;;;;;;;;;;;20.92;47.73;96400.63;1050929;28;1840;-58
2021/10/07 02:44:10;;;;;;;;;;;;;;;20.91;47.49;96399.03;1053686;28;1160;-56
2021/10/07 02:44:41;;;;;;;;;;;;;;;20.91;47.43;96392.97;1052826;28;1084;-59
2021/10/07 02:45:12;;;;;;;;;;;;;;;20.92;47.50;96397.97;1050872;28;1028;-59
2021/10/07 02:45:43;;;;;;;;;;;;;;;20.91;47.43;96393.78;1049461;28;1906;-56
2021/10/07 02:46:13;;;;;;;;;;;;;;;20.91;47.51;96388.50;1053105;28;1145;-58
2021/10/07 02:46:44;;;;;;;;;;;;;;;20.91;47.47;96388.50;1048246;28;1840;-58
2021/10/07 02:47:14;;;;;;;;;;;;;;;20.92;47.75;96395.34;1050320;28;2001;-59
2021/10/07 02:47:46;;;;;;;;;;;;;;;20.92;47.60;96389.28;1048772;28;994;-57
2021/10/07 02:48:16;;;;;;;;;;;;;;;20.92;47.60;96395.34;1052469;28;1344;-56
2021/10/07 02:48:47;;;;;;;;;;;;;;;20.92;47.66;96399.81;1051690;28;2129;-60
2021/10/07 02:49:17;;;;;;;;;;;;;;;20.91;47.51;96401.69;1053331;28;1443;-59
2021/10/07 02:49:47;;;;;;;;;;;;;;;20.92;47.51;96395.34;1051660;28;1157;-59
2021/10/07 02:50:18;;;;;;;;;;;;;;;20.91;47.58;96393.78;1051362;28;1236;-59
2021/10/07 02:50:49;;;;;;;;;;;;;;;20.91;47.66;96400.88;1050451;28;1404;-58